sensor_id;sensor_type;location;lat;lon;timestamp;pressure;altitude;pressure_sealevel;temperature;humidity
53932;BME280;39844;52.496;13.482;2023-04-09T00:01:06;102486.78;;;5.42;87.93
53932;BME280;39844;52.496;13.482;2023-04-09T00:03:32;102488.38;;;5.38;88.63
53932;BME280;39844;52.496;13.482;2023-04-09T00:05:57;102490.78;;;5.34;88.28
53932;BME280;39844;52.496;13.482;2023-04-09T00:08:23;102497.56;;;5.30;88.46
53932;BME280;39844;52.496;13.482;2023-04-09T00:10:49;102494.81;;;5.27;88.68
53932;BME280;39844;52.496;13.482;2023-04-09T00:13:14;102489.44;;;5.24;88.57
53932;BME280;39844;52.496;13.482;2023-04-09T00:15:40;102485.00;;;5.22;88.93
53932;BME280;39844;52.496;13.482;2023-04-09T00:18:05;102483.97;;;5.18;88.84
53932;BME280;39844;52.496;13.482;2023-04-09T00:20:30;102482.94;;;5.15;89.46
53932;BME280;39844;52.496;13.482;2023-04-09T00:22:55;102491.44;;;5.10;89.18
53932;BME280;39844;52.496;13.482;2023-04-09T00:25:21;102479.19;;;5.08;89.34
53932;BME280;39844;52.496;13.482;2023-04-09T00:27:46;102487.78;;;5.07;89.30
53932;BME280;39844;52.496;13.482;2023-04-09T00:30:11;102492.84;;;5.04;88.88
53932;BME280;39844;52.496;13.482;2023-04-09T00:32:37;102487.44;;;4.99;89.13
53932;BME280;39844;52.496;13.482;2023-04-09T00:35:02;102493.44;;;4.98;89.52
53932;BME280;39844;52.496;13.482;2023-04-09T00:37:27;102489.88;;;4.96;89.77
53932;BME280;39844;52.496;13.482;2023-04-09T00:39:53;102486.38;;;4.96;90.81
53932;BME280;39844;52.496;13.482;2023-04-09T00:42:18;102478.59;;;4.96;91.13
53932;BME280;39844;52.496;13.482;2023-04-09T00:44:43;102491.53;;;4.94;91.08
53932;BME280;39844;52.496;13.482;2023-04-09T00:47:09;102494.06;;;4.93;91.25
53932;BME280;39844;52.496;13.482;2023-04-09T00:49:34;102491.31;;;4.90;91.41
53932;BME280;39844;52.496;13.482;2023-04-09T00:52:00;102491.13;;;4.85;91.69
53932;BME280;39844;52.496;13.482;2023-04-09T00:54:26;102485.75;;;4.82;92.31
53932;BME280;39844;52.496;13.482;2023-04-09T00:56:52;102488.22;;;4.79;92.43
53932;BME280;39844;52.496;13.482;2023-04-09T00:59:18;102489.69;;;4.74;92.22
53932;BME280;39844;52.496;13.482;2023-04-09T01:01:43;102487.78;;;4.70;92.50
53932;BME280;39844;52.496;13.482;2023-04-09T01:04:08;102485.84;;;4.66;92.89
53932;BME280;39844;52.496;13.482;2023-04-09T01:14:23;102482.56;;;4.53;94.10
53932;BME280;39844;52.496;13.482;2023-04-09T01:16:54;102492.69;;;4.46;93.95
53932;BME280;39844;52.496;13.482;2023-04-09T01:19:32;102487.31;;;4.43;94.49
53932;BME280;39844;52.496;13.482;2023-04-09T01:21:59;102488.88;;;4.40;94.57
53932;BME280;39844;52.496;13.482;2023-04-09T01:25:06;102487.91;;;4.38;94.56
53932;BME280;39844;52.496;13.482;2023-04-09T01:30:44;102491.03;;;4.31;94.50
53932;BME280;39844;52.496;13.482;2023-04-09T01:33:13;102492.66;;;4.29;94.94
53932;BME280;39844;52.496;13.482;2023-04-09T01:35:42;102486.41;;;4.25;94.30
53932;BME280;39844;52.496;13.482;2023-04-09T01:38:08;102486.25;;;4.22;94.62
53932;BME280;39844;52.496;13.482;2023-04-09T01:40:34;102488.78;;;4.21;94.56
53932;BME280;39844;52.496;13.482;2023-04-09T01:43:00;102495.53;;;4.17;94.36
53932;BME280;39844;52.496;13.482;2023-04-09T01:45:27;102494.56;;;4.15;94.99
53932;BME280;39844;52.496;13.482;2023-04-09T01:47:53;102496.19;;;4.13;95.13
53932;BME280;39844;52.496;13.482;2023-04-09T01:50:20;102494.34;;;4.11;95.09
53932;BME280;39844;52.496;13.482;2023-04-09T01:52:46;102494.28;;;4.09;95.09
53932;BME280;39844;52.496;13.482;2023-04-09T01:55:11;102501.97;;;4.08;95.08
53932;BME280;39844;52.496;13.482;2023-04-09T01:57:36;102491.41;;;4.05;94.94
53932;BME280;39844;52.496;13.482;2023-04-09T02:00:03;102501.69;;;4.02;95.15
53932;BME280;39844;52.496;13.482;2023-04-09T02:02:35;102492.91;;;4.00;95.22
53932;BME280;39844;52.496;13.482;2023-04-09T02:05:03;102496.31;;;3.99;95.72
53932;BME280;39844;52.496;13.482;2023-04-09T02:07:37;102500.53;;;3.97;95.46
53932;BME280;39844;52.496;13.482;2023-04-09T02:10:07;102496.97;;;3.95;95.52
53932;BME280;39844;52.496;13.482;2023-04-09T02:12:36;102503.72;;;3.91;95.24
53932;BME280;39844;52.496;13.482;2023-04-09T02:15:03;102501.88;;;3.89;95.98
53932;BME280;39844;52.496;13.482;2023-04-09T02:17:30;102504.31;;;3.86;96.19
53932;BME280;39844;52.496;13.482;2023-04-09T02:19:55;102498.03;;;3.82;96.22
53932;BME280;39844;52.496;13.482;2023-04-09T02:22:20;102497.16;;;3.81;96.64
53932;BME280;39844;52.496;13.482;2023-04-09T02:24:46;102496.19;;;3.79;96.74
53932;BME280;39844;52.496;13.482;2023-04-09T02:27:11;102498.78;;;3.79;96.82
53932;BME280;39844;52.496;13.482;2023-04-09T02:29:38;102497.03;;;3.78;96.91
53932;BME280;39844;52.496;13.482;2023-04-09T02:32:03;102503.81;;;3.76;96.82
53932;BME280;39844;52.496;13.482;2023-04-09T02:34:29;102503.75;;;3.75;96.88
53932;BME280;39844;52.496;13.482;2023-04-09T02:36:54;102500.25;;;3.74;97.15
53932;BME280;39844;52.496;13.482;2023-04-09T02:39:19;102497.59;;;3.73;96.89
53932;BME280;39844;52.496;13.482;2023-04-09T02:41:45;102502.69;;;3.71;96.95
53932;BME280;39844;52.496;13.482;2023-04-09T02:44:10;102499.13;;;3.69;97.14
53932;BME280;39844;52.496;13.482;2023-04-09T02:46:35;102499.84;;;3.67;96.99
53932;BME280;39844;52.496;13.482;2023-04-09T02:49:00;102504.16;;;3.66;96.93
53932;BME280;39844;52.496;13.482;2023-04-09T02:51:26;102500.59;;;3.64;97.13
53932;BME280;39844;52.496;13.482;2023-04-09T02:53:51;102498.88;;;3.65;97.42
53932;BME280;39844;52.496;13.482;2023-04-09T02:56:17;102501.41;;;3.63;97.26
53932;BME280;39844;52.496;13.482;2023-04-09T02:58:42;102504.75;;;3.61;97.16
53932;BME280;39844;52.496;13.482;2023-04-09T03:01:07;102496.06;;;3.60;97.87
53932;BME280;39844;52.496;13.482;2023-04-09T03:03:32;102503.84;;;3.60;98.06
53932;BME280;39844;52.496;13.482;2023-04-09T03:05:58;102496.06;;;3.60;98.30
53932;BME280;39844;52.496;13.482;2023-04-09T03:08:23;102492.50;;;3.58;97.82
53932;BME280;39844;52.496;13.482;2023-04-09T03:10:48;102491.44;;;3.55;97.80
53932;BME280;39844;52.496;13.482;2023-04-09T03:13:14;102496.56;;;3.53;97.92
53932;BME280;39844;52.496;13.482;2023-04-09T03:15:39;102494.69;;;3.51;97.89
53932;BME280;39844;52.496;13.482;2023-04-09T03:18:04;102490.13;;;3.47;98.09
53932;BME280;39844;52.496;13.482;2023-04-09T03:20:30;102481.38;;;3.45;98.19
53932;BME280;39844;52.496;13.482;2023-04-09T03:22:55;102490.84;;;3.44;98.27
53932;BME280;39844;52.496;13.482;2023-04-09T03:25:20;102479.50;;;3.42;98.37
53932;BME280;39844;52.496;13.482;2023-04-09T03:27:46;102489.88;;;3.42;98.44
53932;BME280;39844;52.496;13.482;2023-04-09T03:30:11;102491.53;;;3.40;98.42
53932;BME280;39844;52.496;13.482;2023-04-09T03:32:36;102480.97;;;3.37;98.14
53932;BME280;39844;52.496;13.482;2023-04-09T03:35:02;102479.16;;;3.36;98.25
53932;BME280;39844;52.496;13.482;2023-04-09T03:37:27;102477.66;;;3.40;99.35
53932;BME280;39844;52.496;13.482;2023-04-09T03:39:52;102477.72;;;3.41;98.82
53932;BME280;39844;52.496;13.482;2023-04-09T03:42:18;102491.66;;;3.43;98.71
53932;BME280;39844;52.496;13.482;2023-04-09T03:44:43;102487.63;;;3.48;99.46
53932;BME280;39844;52.496;13.482;2023-04-09T03:47:08;102485.34;;;3.54;99.68
53932;BME280;39844;52.496;13.482;2023-04-09T03:49:34;102496.84;;;3.59;99.12
53932;BME280;39844;52.496;13.482;2023-04-09T03:52:00;102484.03;;;3.62;98.77
53932;BME280;39844;52.496;13.482;2023-04-09T03:54:28;102480.94;;;3.69;99.58
53932;BME280;39844;52.496;13.482;2023-04-09T03:56:53;102484.59;;;3.73;99.53
53932;BME280;39844;52.496;13.482;2023-04-09T03:59:19;102483.75;;;3.74;99.45
53932;BME280;39844;52.496;13.482;2023-04-09T04:01:44;102484.84;;;3.77;99.43
53932;BME280;39844;52.496;13.482;2023-04-09T04:04:09;102484.84;;;3.77;99.27
53932;BME280;39844;52.496;13.482;2023-04-09T04:06:34;102482.16;;;3.76;98.95
53932;BME280;39844;52.496;13.482;2023-04-09T04:09:00;102484.66;;;3.74;98.86
53932;BME280;39844;52.496;13.482;2023-04-09T04:11:25;102477.72;;;3.73;99.12
53932;BME280;39844;52.496;13.482;2023-04-09T04:13:50;102488.00;;;3.72;99.05
53932;BME280;39844;52.496;13.482;2023-04-09T04:16:16;102487.09;;;3.71;99.21
53932;BME280;39844;52.496;13.482;2023-04-09T04:18:41;102487.94;;;3.70;99.24
53932;BME280;39844;52.496;13.482;2023-04-09T04:21:12;102492.91;;;3.66;98.96
53932;BME280;39844;52.496;13.482;2023-04-09T04:23:38;102500.50;;;3.63;99.00
53932;BME280;39844;52.496;13.482;2023-04-09T04:26:09;102498.47;;;3.57;98.45
53932;BME280;39844;52.496;13.482;2023-04-09T04:28:35;102503.28;;;3.50;98.81
53932;BME280;39844;52.496;13.482;2023-04-09T04:31:00;102505.53;;;3.44;99.52
53932;BME280;39844;52.496;13.482;2023-04-09T04:33:25;102520.06;;;3.40;100.00
53932;BME280;39844;52.496;13.482;2023-04-09T04:35:51;102510.47;;;3.39;100.00
53932;BME280;39844;52.496;13.482;2023-04-09T04:38:16;102514.03;;;3.41;100.00
53932;BME280;39844;52.496;13.482;2023-04-09T04:40:41;102513.31;;;3.44;100.00
53932;BME280;39844;52.496;13.482;2023-04-09T04:43:07;102516.81;;;3.44;100.00
53932;BME280;39844;52.496;13.482;2023-04-09T04:45:32;102517.78;;;3.46;100.00
53932;BME280;39844;52.496;13.482;2023-04-09T04:47:57;102514.38;;;3.47;100.00
53932;BME280;39844;52.496;13.482;2023-04-09T04:50:22;102514.56;;;3.50;100.00
53932;BME280;39844;52.496;13.482;2023-04-09T04:52:48;102512.94;;;3.52;100.00
53932;BME280;39844;52.496;13.482;2023-04-09T04:55:13;102520.06;;;3.56;100.00
53932;BME280;39844;52.496;13.482;2023-04-09T05:00:44;102526.78;;;3.69;100.00
53932;BME280;39844;52.496;13.482;2023-04-09T05:03:10;102527.91;;;3.74;100.00
53932;BME280;39844;52.496;13.482;2023-04-09T05:05:35;102530.84;;;3.80;100.00
53932;BME280;39844;52.496;13.482;2023-04-09T05:08:01;102536.38;;;3.86;100.00
53932;BME280;39844;52.496;13.482;2023-04-09T05:10:26;102532.38;;;3.93;100.00
53932;BME280;39844;52.496;13.482;2023-04-09T05:12:51;102541.28;;;3.98;100.00
53932;BME280;39844;52.496;13.482;2023-04-09T05:15:17;102537.22;;;4.03;100.00
53932;BME280;39844;52.496;13.482;2023-04-09T05:17:42;102537.63;;;4.10;100.00
53932;BME280;39844;52.496;13.482;2023-04-09T05:20:08;102540.53;;;4.16;100.00
53932;BME280;39844;52.496;13.482;2023-04-09T05:22:34;102539.13;;;4.23;100.00
53932;BME280;39844;52.496;13.482;2023-04-09T05:24:59;102532.47;;;4.28;100.00
53932;BME280;39844;52.496;13.482;2023-04-09T05:27:25;102538.94;;;4.36;100.00
53932;BME280;39844;52.496;13.482;2023-04-09T05:29:50;102540.06;;;4.41;100.00
53932;BME280;39844;52.496;13.482;2023-04-09T05:32:15;102537.84;;;4.48;100.00
53932;BME280;39844;52.496;13.482;2023-04-09T05:34:40;102540.66;;;4.53;100.00
53932;BME280;39844;52.496;13.482;2023-04-09T05:37:06;102540.97;;;4.59;100.00
53932;BME280;39844;52.496;13.482;2023-04-09T05:39:31;102540.19;;;4.60;100.00
53932;BME280;39844;52.496;13.482;2023-04-09T05:41:57;102540.31;;;4.63;100.00
53932;BME280;39844;52.496;13.482;2023-04-09T05:44:22;102539.44;;;4.63;100.00
53932;BME280;39844;52.496;13.482;2023-04-09T05:46:47;102536.09;;;4.65;100.00
53932;BME280;39844;52.496;13.482;2023-04-09T05:49:13;102541.28;;;4.65;100.00
53932;BME280;39844;52.496;13.482;2023-04-09T05:51:38;102553.31;;;4.63;100.00
53932;BME280;39844;52.496;13.482;2023-04-09T05:54:03;102542.09;;;4.64;100.00
53932;BME280;39844;52.496;13.482;2023-04-09T05:56:28;102542.25;;;4.67;100.00
53932;BME280;39844;52.496;13.482;2023-04-09T05:58:54;102542.31;;;4.69;100.00
53932;BME280;39844;52.496;13.482;2023-04-09T06:01:19;102547.66;;;4.72;100.00
53932;BME280;39844;52.496;13.482;2023-04-09T06:03:44;102529.53;;;4.73;100.00
53932;BME280;39844;52.496;13.482;2023-04-09T06:06:10;102535.94;;;4.80;100.00
53932;BME280;39844;52.496;13.482;2023-04-09T06:08:35;102530.94;;;4.84;100.00
53932;BME280;39844;52.496;13.482;2023-04-09T06:11:00;102540.66;;;4.88;100.00
53932;BME280;39844;52.496;13.482;2023-04-09T06:13:26;102537.56;;;4.95;100.00
53932;BME280;39844;52.496;13.482;2023-04-09T06:15:51;102539.31;;;4.96;100.00
53932;BME280;39844;52.496;13.482;2023-04-09T06:18:16;102538.69;;;5.00;100.00
53932;BME280;39844;52.496;13.482;2023-04-09T06:20:42;102546.75;;;5.06;100.00
53932;BME280;39844;52.496;13.482;2023-04-09T06:23:07;102543.50;;;5.10;100.00
53932;BME280;39844;52.496;13.482;2023-04-09T06:25:32;102541.16;;;5.17;100.00
53932;BME280;39844;52.496;13.482;2023-04-09T06:27:57;102545.88;;;5.24;100.00
53932;BME280;39844;52.496;13.482;2023-04-09T06:30:23;102536.59;;;5.30;100.00
53932;BME280;39844;52.496;13.482;2023-04-09T06:32:49;102539.56;;;5.38;100.00
53932;BME280;39844;52.496;13.482;2023-04-09T06:35:15;102533.91;;;5.46;100.00
53932;BME280;39844;52.496;13.482;2023-04-09T06:37:40;102534.25;;;5.54;100.00
53932;BME280;39844;52.496;13.482;2023-04-09T06:40:06;102535.34;;;5.59;100.00
53932;BME280;39844;52.496;13.482;2023-04-09T06:42:32;102533.94;;;5.67;100.00
53932;BME280;39844;52.496;13.482;2023-04-09T06:44:57;102541.84;;;5.68;100.00
53932;BME280;39844;52.496;13.482;2023-04-09T06:47:22;102546.38;;;5.72;100.00
53932;BME280;39844;52.496;13.482;2023-04-09T06:49:48;102553.56;;;5.78;100.00
53932;BME280;39844;52.496;13.482;2023-04-09T06:52:13;102539.88;;;5.82;100.00
53932;BME280;39844;52.496;13.482;2023-04-09T06:54:38;102546.28;;;5.89;100.00
53932;BME280;39844;52.496;13.482;2023-04-09T06:57:05;102546.47;;;5.93;100.00
53932;BME280;39844;52.496;13.482;2023-04-09T06:59:30;102552.78;;;5.98;100.00
53932;BME280;39844;52.496;13.482;2023-04-09T07:01:55;102547.66;;;6.00;100.00
53932;BME280;39844;52.496;13.482;2023-04-09T07:04:21;102552.78;;;5.98;100.00
53932;BME280;39844;52.496;13.482;2023-04-09T07:06:46;102548.41;;;5.97;100.00
53932;BME280;39844;52.496;13.482;2023-04-09T07:09:11;102558.13;;;6.01;100.00
53932;BME280;39844;52.496;13.482;2023-04-09T07:11:37;102556.75;;;6.09;100.00
53932;BME280;39844;52.496;13.482;2023-04-09T07:14:02;102552.44;;;6.10;100.00
53932;BME280;39844;52.496;13.482;2023-04-09T07:16:27;102561.53;;;6.19;100.00
53932;BME280;39844;52.496;13.482;2023-04-09T07:18:52;102558.34;;;6.26;100.00
53932;BME280;39844;52.496;13.482;2023-04-09T07:21:18;102559.56;;;6.34;99.54
53932;BME280;39844;52.496;13.482;2023-04-09T07:23:43;102566.81;;;6.42;99.47
53932;BME280;39844;52.496;13.482;2023-04-09T07:26:08;102567.91;;;6.47;98.66
53932;BME280;39844;52.496;13.482;2023-04-09T07:28:36;102564.63;;;6.51;98.21
53932;BME280;39844;52.496;13.482;2023-04-09T07:31:01;102554.69;;;6.63;99.29
53932;BME280;39844;52.496;13.482;2023-04-09T07:33:27;102560.28;;;6.72;98.73
53932;BME280;39844;52.496;13.482;2023-04-09T07:35:52;102550.91;;;6.77;97.40
53932;BME280;39844;52.496;13.482;2023-04-09T07:38:18;102563.28;;;6.81;97.01
53932;BME280;39844;52.496;13.482;2023-04-09T07:40:43;102565.88;;;6.81;95.51
53932;BME280;39844;52.496;13.482;2023-04-09T07:43:08;102557.16;;;6.80;94.76
53932;BME280;39844;52.496;13.482;2023-04-09T07:45:33;102562.44;;;6.82;95.74
53932;BME280;39844;52.496;13.482;2023-04-09T07:47:59;102558.75;;;6.77;94.41
53932;BME280;39844;52.496;13.482;2023-04-09T07:50:24;102553.78;;;6.83;95.29
53932;BME280;39844;52.496;13.482;2023-04-09T07:52:49;102554.22;;;6.93;95.12
53932;BME280;39844;52.496;13.482;2023-04-09T07:55:15;102559.16;;;7.08;96.09
53932;BME280;39844;52.496;13.482;2023-04-09T07:57:40;102557.88;;;7.19;94.76
53932;BME280;39844;52.496;13.482;2023-04-09T08:00:06;102563.44;;;7.28;93.85
53932;BME280;39844;52.496;13.482;2023-04-09T08:02:31;102566.28;;;7.34;92.87
53932;BME280;39844;52.496;13.482;2023-04-09T08:04:56;102568.91;;;7.34;91.32
53932;BME280;39844;52.496;13.482;2023-04-09T08:07:22;102558.63;;;7.39;91.58
53932;BME280;39844;52.496;13.482;2023-04-09T08:09:47;102561.53;;;7.46;91.15
53932;BME280;39844;52.496;13.482;2023-04-09T08:12:12;102559.03;;;7.49;90.87
53932;BME280;39844;52.496;13.482;2023-04-09T08:14:38;102566.03;;;7.50;89.81
53932;BME280;39844;52.496;13.482;2023-04-09T08:17:03;102570.44;;;7.51;90.03
53932;BME280;39844;52.496;13.482;2023-04-09T08:19:28;102576.59;;;7.53;90.33
53932;BME280;39844;52.496;13.482;2023-04-09T08:21:54;102580.28;;;7.58;90.27
53932;BME280;39844;52.496;13.482;2023-04-09T08:24:19;102577.84;;;7.63;89.78
53932;BME280;39844;52.496;13.482;2023-04-09T08:26:44;102578.84;;;7.67;89.11
53932;BME280;39844;52.496;13.482;2023-04-09T08:29:11;102572.84;;;7.69;89.99
53932;BME280;39844;52.496;13.482;2023-04-09T08:31:36;102574.19;;;7.82;90.85
53932;BME280;39844;52.496;13.482;2023-04-09T08:34:02;102582.94;;;7.82;88.92
53932;BME280;39844;52.496;13.482;2023-04-09T08:36:27;102576.03;;;7.84;89.30
53932;BME280;39844;52.496;13.482;2023-04-09T08:38:52;102575.50;;;7.93;89.38
53932;BME280;39844;52.496;13.482;2023-04-09T08:41:19;102587.00;;;7.98;88.64
53932;BME280;39844;52.496;13.482;2023-04-09T08:43:49;102574.97;;;8.03;88.46
53932;BME280;39844;52.496;13.482;2023-04-09T08:46:14;102571.69;;;8.08;88.29
53932;BME280;39844;52.496;13.482;2023-04-09T08:48:42;102579.09;;;8.20;88.88
53932;BME280;39844;52.496;13.482;2023-04-09T08:51:07;102583.72;;;8.27;87.28
53932;BME280;39844;52.496;13.482;2023-04-09T08:53:34;102575.88;;;8.27;85.06
53932;BME280;39844;52.496;13.482;2023-04-09T08:56:00;102569.06;;;8.32;84.76
53932;BME280;39844;52.496;13.482;2023-04-09T08:58:25;102571.75;;;8.34;84.51
53932;BME280;39844;52.496;13.482;2023-04-09T09:00:50;102572.63;;;8.34;83.79
53932;BME280;39844;52.496;13.482;2023-04-09T09:03:15;102575.06;;;8.28;83.36
53932;BME280;39844;52.496;13.482;2023-04-09T09:05:43;102572.28;;;8.25;83.76
53932;BME280;39844;52.496;13.482;2023-04-09T09:08:12;102573.41;;;8.32;83.94
53932;BME280;39844;52.496;13.482;2023-04-09T09:10:42;102575.44;;;8.39;83.08
53932;BME280;39844;52.496;13.482;2023-04-09T09:13:20;102569.28;;;8.38;82.27
53932;BME280;39844;52.496;13.482;2023-04-09T09:18:49;102566.25;;;8.51;82.75
53932;BME280;39844;52.496;13.482;2023-04-09T09:21:16;102563.84;;;8.57;81.79
53932;BME280;39844;52.496;13.482;2023-04-09T09:23:42;102565.88;;;8.66;81.64
53932;BME280;39844;52.496;13.482;2023-04-09T09:26:16;102563.72;;;8.79;81.79
53932;BME280;39844;52.496;13.482;2023-04-09T09:28:41;102558.13;;;8.96;81.34
53932;BME280;39844;52.496;13.482;2023-04-09T09:31:10;102564.59;;;9.07;80.89
53932;BME280;39844;52.496;13.482;2023-04-09T09:33:36;102568.53;;;9.21;79.80
53932;BME280;39844;52.496;13.482;2023-04-09T09:36:02;102564.44;;;9.29;80.05
53932;BME280;39844;52.496;13.482;2023-04-09T09:38:28;102562.03;;;9.36;79.09
53932;BME280;39844;52.496;13.482;2023-04-09T09:40:53;102560.31;;;9.37;76.41
53932;BME280;39844;52.496;13.482;2023-04-09T09:43:19;102567.28;;;9.36;77.53
53932;BME280;39844;52.496;13.482;2023-04-09T09:45:46;102560.97;;;9.30;77.26
53932;BME280;39844;52.496;13.482;2023-04-09T09:48:11;102547.25;;;9.38;77.94
53932;BME280;39844;52.496;13.482;2023-04-09T09:50:38;102551.22;;;9.54;78.88
53932;BME280;39844;52.496;13.482;2023-04-09T09:53:04;102550.53;;;9.61;76.81
53932;BME280;39844;52.496;13.482;2023-04-09T09:55:31;102545.69;;;9.73;76.41
53932;BME280;39844;52.496;13.482;2023-04-09T09:58:00;102543.16;;;9.76;76.31
53932;BME280;39844;52.496;13.482;2023-04-09T10:00:28;102542.97;;;9.70;74.54
53932;BME280;39844;52.496;13.482;2023-04-09T10:03:07;102534.75;;;9.58;74.27
53932;BME280;39844;52.496;13.482;2023-04-09T10:05:36;102535.25;;;9.46;74.81
53932;BME280;39844;52.496;13.482;2023-04-09T10:08:03;102536.91;;;9.43;75.68
53932;BME280;39844;52.496;13.482;2023-04-09T10:10:29;102533.41;;;9.42;76.06
53932;BME280;39844;52.496;13.482;2023-04-09T10:12:55;102538.06;;;9.52;77.21
53932;BME280;39844;52.496;13.482;2023-04-09T10:15:22;102534.66;;;9.55;76.53
53932;BME280;39844;52.496;13.482;2023-04-09T10:17:47;102540.06;;;9.61;76.11
53932;BME280;39844;52.496;13.482;2023-04-09T10:20:17;102528.06;;;9.69;77.01
53932;BME280;39844;52.496;13.482;2023-04-09T10:22:47;102531.19;;;9.87;75.80
53932;BME280;39844;52.496;13.482;2023-04-09T10:25:15;102533.34;;;10.02;75.95
53932;BME280;39844;52.496;13.482;2023-04-09T10:27:42;102542.31;;;10.10;74.91
53932;BME280;39844;52.496;13.482;2023-04-09T10:30:07;102538.81;;;10.09;72.96
53932;BME280;39844;52.496;13.482;2023-04-09T10:32:36;102536.13;;;10.06;73.40
53932;BME280;39844;52.496;13.482;2023-04-09T10:35:02;102537.72;;;10.01;73.58
53932;BME280;39844;52.496;13.482;2023-04-09T10:37:27;102539.56;;;10.04;73.97
53932;BME280;39844;52.496;13.482;2023-04-09T10:39:53;102538.09;;;10.13;74.04
53932;BME280;39844;52.496;13.482;2023-04-09T10:42:23;102533.06;;;10.23;74.02
53932;BME280;39844;52.496;13.482;2023-04-09T10:45:05;102534.22;;;10.32;73.06
53932;BME280;39844;52.496;13.482;2023-04-09T10:47:32;102531.94;;;10.46;74.05
53932;BME280;39844;52.496;13.482;2023-04-09T10:49:57;102529.28;;;10.44;71.78
53932;BME280;39844;52.496;13.482;2023-04-09T10:52:39;102532.53;;;10.34;71.25
53932;BME280;39844;52.496;13.482;2023-04-09T10:55:05;102531.63;;;10.34;72.70
53932;BME280;39844;52.496;13.482;2023-04-09T10:57:31;102529.28;;;10.44;73.24
53932;BME280;39844;52.496;13.482;2023-04-09T10:59:56;102528.78;;;10.59;71.85
53932;BME280;39844;52.496;13.482;2023-04-09T11:05:17;102523.91;;;11.11;70.92
53932;BME280;39844;52.496;13.482;2023-04-09T11:07:45;102520.56;;;11.59;68.88
53932;BME280;39844;52.496;13.482;2023-04-09T11:10:11;102522.69;;;11.75;65.05
53932;BME280;39844;52.496;13.482;2023-04-09T11:12:37;102521.03;;;11.80;66.63
53932;BME280;39844;52.496;13.482;2023-04-09T11:15:02;102520.75;;;12.10;67.89
53932;BME280;39844;52.496;13.482;2023-04-09T11:17:28;102520.25;;;12.30;64.41
53932;BME280;39844;52.496;13.482;2023-04-09T11:19:54;102515.69;;;12.73;64.01
53932;BME280;39844;52.496;13.482;2023-04-09T11:22:19;102522.28;;;13.02;60.81
53932;BME280;39844;52.496;13.482;2023-04-09T11:24:45;102517.31;;;13.20;60.38
53932;BME280;39844;52.496;13.482;2023-04-09T11:27:11;102509.00;;;13.54;60.28
53932;BME280;39844;52.496;13.482;2023-04-09T11:29:36;102509.06;;;13.60;57.44
53932;BME280;39844;52.496;13.482;2023-04-09T11:32:02;102488.28;;;13.89;59.15
53932;BME280;39844;52.496;13.482;2023-04-09T11:34:27;102498.25;;;14.16;58.22
53932;BME280;39844;52.496;13.482;2023-04-09T11:36:53;102495.72;;;14.29;54.42
53932;BME280;39844;52.496;13.482;2023-04-09T11:39:18;102493.91;;;14.21;55.91
53932;BME280;39844;52.496;13.482;2023-04-09T11:41:44;102493.06;;;14.25;55.05
53932;BME280;39844;52.496;13.482;2023-04-09T11:44:09;102490.44;;;14.28;55.21
53932;BME280;39844;52.496;13.482;2023-04-09T11:46:35;102492.31;;;14.39;55.51
53932;BME280;39844;52.496;13.482;2023-04-09T11:49:02;102482.50;;;14.29;55.47
53932;BME280;39844;52.496;13.482;2023-04-09T11:51:28;102473.72;;;14.30;56.45
53932;BME280;39844;52.496;13.482;2023-04-09T11:53:54;102474.13;;;14.74;55.65
53932;BME280;39844;52.496;13.482;2023-04-09T11:56:19;102483.09;;;15.00;56.19
53932;BME280;39844;52.496;13.482;2023-04-09T11:58:46;102485.03;;;15.32;54.08
53932;BME280;39844;52.496;13.482;2023-04-09T12:01:11;102478.88;;;15.39;54.91
53932;BME280;39844;52.496;13.482;2023-04-09T12:03:36;102474.63;;;15.65;53.23
53932;BME280;39844;52.496;13.482;2023-04-09T12:06:03;102486.97;;;15.60;51.35
53932;BME280;39844;52.496;13.482;2023-04-09T12:08:29;102469.28;;;15.53;50.47
53932;BME280;39844;52.496;13.482;2023-04-09T12:10:54;102473.59;;;15.37;51.03
53932;BME280;39844;52.496;13.482;2023-04-09T12:13:20;102478.13;;;15.58;51.75
53932;BME280;39844;52.496;13.482;2023-04-09T12:15:47;102479.94;;;15.68;51.96
53932;BME280;39844;52.496;13.482;2023-04-09T12:18:13;102475.59;;;16.03;51.00
53932;BME280;39844;52.496;13.482;2023-04-09T12:20:46;102469.41;;;16.07;50.58
53932;BME280;39844;52.496;13.482;2023-04-09T12:23:12;102470.31;;;16.26;50.33
53932;BME280;39844;52.496;13.482;2023-04-09T12:25:41;102458.84;;;16.42;49.86
53932;BME280;39844;52.496;13.482;2023-04-09T12:28:07;102470.31;;;16.20;49.60
53932;BME280;39844;52.496;13.482;2023-04-09T12:30:33;102470.31;;;16.11;50.29
53932;BME280;39844;52.496;13.482;2023-04-09T12:32:59;102470.31;;;16.15;49.01
53932;BME280;39844;52.496;13.482;2023-04-09T12:35:25;102464.16;;;16.16;51.38
53932;BME280;39844;52.496;13.482;2023-04-09T12:37:50;102472.09;;;16.22;49.48
53932;BME280;39844;52.496;13.482;2023-04-09T12:40:16;102465.91;;;16.34;50.12
53932;BME280;39844;52.496;13.482;2023-04-09T12:42:43;102457.13;;;16.55;50.33
53932;BME280;39844;52.496;13.482;2023-04-09T12:45:10;102458.84;;;16.77;49.46
53932;BME280;39844;52.496;13.482;2023-04-09T12:47:36;102446.47;;;16.82;49.59
53932;BME280;39844;52.496;13.482;2023-04-09T12:50:06;102450.00;;;16.90;49.48
53932;BME280;39844;52.496;13.482;2023-04-09T12:52:31;102442.00;;;16.99;48.36
53932;BME280;39844;52.496;13.482;2023-04-09T12:54:57;102434.94;;;16.95;49.01
53932;BME280;39844;52.496;13.482;2023-04-09T12:57:23;102437.59;;;16.95;49.18
53932;BME280;39844;52.496;13.482;2023-04-09T12:59:48;102444.63;;;17.02;50.14